createdAt,value
2019-05-14T00:00:52.281Z,8.61
2019-05-14T00:03:21.748Z,8.64
2019-05-14T00:05:48.413Z,8.60
2019-05-14T00:08:17.532Z,8.67
2019-05-14T00:10:44.728Z,8.54
2019-05-14T00:13:12.142Z,8.54
2019-05-14T00:15:41.320Z,8.47
2019-05-14T00:18:08.336Z,8.51
2019-05-14T00:20:35.521Z,8.47
2019-05-14T00:23:02.723Z,8.47
2019-05-14T00:25:31.283Z,8.39
2019-05-14T00:27:58.608Z,8.35
2019-05-14T00:30:25.839Z,8.35
2019-05-14T00:32:53.129Z,8.32
2019-05-14T00:35:21.577Z,8.34
2019-05-14T00:37:48.710Z,8.24
2019-05-14T00:40:15.916Z,8.18
2019-05-14T00:42:43.006Z,8.11
2019-05-14T00:45:11.568Z,8.08
2019-05-14T00:47:38.764Z,8.10
2019-05-14T00:50:06.217Z,8.00
2019-05-14T00:52:33.384Z,7.88
2019-05-14T00:55:01.136Z,7.94
2019-05-14T00:57:28.480Z,7.98
2019-05-14T00:59:55.670Z,7.91
2019-05-14T01:02:22.890Z,7.79
2019-05-14T01:04:51.634Z,7.70
2019-05-14T01:07:20.983Z,7.66
2019-05-14T01:09:48.089Z,7.72
2019-05-14T01:12:15.272Z,7.69
2019-05-14T01:14:42.726Z,7.68
2019-05-14T01:17:11.310Z,7.65
2019-05-14T01:19:38.519Z,7.61
2019-05-14T01:22:05.683Z,7.70
2019-05-14T01:24:32.878Z,7.68
2019-05-14T01:27:01.612Z,7.64
2019-05-14T01:29:31.639Z,7.51
2019-05-14T01:31:58.442Z,7.57
2019-05-14T01:34:25.532Z,7.60
2019-05-14T01:36:53.026Z,7.67
2019-05-14T01:39:21.294Z,7.70
2019-05-14T01:41:48.559Z,7.68
2019-05-14T01:44:15.728Z,7.73
2019-05-14T01:46:43.304Z,7.79
2019-05-14T01:49:12.060Z,7.64
2019-05-14T01:51:42.112Z,7.61
2019-05-14T01:54:08.620Z,7.57
2019-05-14T01:56:35.820Z,7.61
2019-05-14T01:59:03.513Z,7.60
2019-05-14T02:01:31.574Z,7.55
2019-05-14T02:03:58.881Z,7.52
2019-05-14T02:06:26.061Z,7.60
2019-05-14T02:08:53.260Z,7.70
2019-05-14T02:11:21.391Z,7.67
2019-05-14T02:13:48.657Z,7.59
2019-05-14T02:16:15.893Z,7.58
2019-05-14T02:18:43.279Z,7.54
2019-05-14T02:21:11.846Z,7.52
2019-05-14T02:23:39.101Z,7.63
2019-05-14T02:26:06.255Z,7.57
2019-05-14T02:28:33.414Z,7.45
2019-05-14T02:31:03.552Z,7.52
2019-05-14T02:33:30.822Z,7.66
2019-05-14T02:35:59.969Z,7.61
2019-05-14T02:38:29.898Z,7.55
2019-05-14T02:40:59.647Z,7.50
2019-05-14T02:43:29.043Z,7.41
2019-05-14T02:46:09.511Z,7.32
2019-05-14T02:48:24.496Z,7.28
2019-05-14T02:50:52.155Z,7.28
2019-05-14T02:53:20.081Z,7.20
2019-05-14T02:55:49.785Z,7.16
2019-05-14T02:58:20.552Z,7.13
2019-05-14T03:00:45.808Z,7.11
2019-05-14T03:03:12.973Z,6.97
2019-05-14T03:05:40.416Z,6.97
2019-05-14T03:08:09.038Z,6.94
2019-05-14T03:10:36.513Z,6.96
2019-05-14T03:13:04.862Z,6.96
2019-05-14T03:15:32.054Z,6.92
2019-05-14T03:17:59.896Z,6.87
2019-05-14T03:20:28.827Z,6.86
2019-05-14T03:23:07.551Z,6.91
2019-05-14T03:25:25.506Z,6.89
2019-05-14T03:27:52.681Z,7.03
2019-05-14T03:30:22.831Z,6.87
2019-05-14T03:32:52.936Z,6.84
2019-05-14T03:35:23.334Z,6.77
2019-05-14T03:37:49.699Z,6.83
2019-05-14T03:40:19.376Z,6.77
2019-05-14T03:42:48.813Z,6.73
2019-05-14T03:45:14.820Z,6.70
2019-05-14T03:47:41.876Z,6.69
2019-05-14T03:50:10.573Z,6.80
2019-05-14T03:52:39.959Z,6.78
2019-05-14T03:55:09.499Z,6.74
2019-05-14T03:57:35.968Z,6.73
2019-05-14T04:00:03.595Z,6.82
2019-05-14T04:02:31.051Z,6.76
2019-05-14T04:04:59.945Z,6.77
2019-05-14T04:07:30.336Z,6.82
2019-05-14T04:09:59.567Z,6.96
2019-05-14T04:12:29.348Z,6.90
2019-05-14T04:14:59.903Z,6.97
2019-05-14T04:17:41.148Z,6.92
2019-05-14T04:20:04.151Z,7.06
2019-05-14T04:22:32.375Z,7.09
2019-05-14T04:25:01.668Z,7.17
2019-05-14T04:27:30.027Z,7.57
2019-05-14T04:29:59.857Z,8.19
2019-05-14T04:32:29.542Z,8.06
2019-05-14T04:34:59.687Z,7.82
2019-05-14T04:37:28.893Z,7.70
2019-05-14T04:39:55.460Z,7.65
2019-05-14T04:42:22.984Z,7.64
2019-05-14T04:44:50.808Z,7.65
2019-05-14T04:47:31.385Z,8.35
2019-05-14T04:49:50.218Z,11.46
2019-05-14T04:52:20.235Z,14.64
2019-05-14T04:54:45.696Z,15.90
2019-05-14T04:57:12.874Z,17.78
2019-05-14T04:59:40.367Z,19.45
2019-05-14T05:02:09.524Z,20.43
2019-05-14T05:04:40.843Z,21.06
2019-05-14T05:07:05.711Z,21.07
2019-05-14T05:09:32.891Z,21.10
2019-05-14T05:12:00.362Z,21.45
2019-05-14T05:14:29.620Z,21.91
2019-05-14T05:16:59.445Z,21.06
2019-05-14T05:19:25.526Z,22.61
2019-05-14T05:21:52.722Z,21.78
2019-05-14T05:24:19.909Z,23.16
2019-05-14T05:26:48.505Z,22.31
2019-05-14T05:29:18.435Z,23.42
2019-05-14T05:31:45.237Z,25.31
2019-05-14T05:34:12.500Z,25.17
2019-05-14T05:36:39.697Z,25.88
2019-05-14T05:39:08.573Z,27.16
2019-05-14T05:41:38.316Z,26.40
2019-05-14T05:44:05.371Z,26.36
2019-05-14T05:46:32.824Z,27.87
2019-05-14T05:49:00.016Z,27.23
2019-05-14T05:51:28.915Z,27.19
2019-05-14T05:53:58.653Z,27.69
2019-05-14T05:56:25.372Z,28.84
2019-05-14T05:58:52.563Z,30.07
2019-05-14T06:01:19.924Z,30.83
2019-05-14T06:03:49.235Z,30.40
2019-05-14T06:06:16.345Z,30.95
2019-05-14T06:08:43.546Z,32.09
2019-05-14T06:11:10.772Z,32.90
2019-05-14T06:13:39.105Z,32.64
2019-05-14T06:16:09.210Z,32.97
2019-05-14T06:18:35.626Z,33.83
2019-05-14T06:21:02.708Z,34.55
2019-05-14T06:23:29.919Z,35.27
2019-05-14T06:25:59.870Z,36.10
2019-05-14T06:28:30.169Z,35.89
2019-05-14T06:30:55.363Z,35.45
2019-05-14T06:33:22.475Z,35.98
2019-05-14T06:35:49.558Z,37.18
2019-05-14T06:38:18.507Z,38.38
2019-05-14T06:40:48.783Z,37.04
2019-05-14T06:43:14.980Z,37.17
2019-05-14T06:45:42.180Z,37.01
2019-05-14T06:48:09.744Z,38.19
2019-05-14T06:50:39.234Z,37.84
2019-05-14T06:53:08.435Z,38.31
2019-05-14T06:55:35.320Z,38.46
2019-05-14T06:58:02.539Z,38.85
2019-05-14T07:00:29.744Z,36.65
2019-05-14T07:02:58.300Z,36.81
2019-05-14T07:05:28.014Z,35.92
2019-05-14T07:07:54.779Z,37.24
2019-05-14T07:10:22.016Z,38.60
2019-05-14T07:12:49.883Z,39.51
2019-05-14T07:15:18.259Z,39.64
2019-05-14T07:17:45.410Z,40.38
2019-05-14T07:20:12.728Z,39.92
2019-05-14T07:22:40.017Z,38.92
2019-05-14T07:25:09.924Z,39.66
2019-05-14T07:27:38.985Z,40.61
2019-05-14T07:30:08.805Z,41.68
2019-05-14T07:32:35.668Z,40.64
2019-05-14T07:35:03.726Z,40.64
2019-05-14T07:37:30.919Z,38.43
2019-05-14T07:39:58.445Z,36.36
2019-05-14T07:42:25.921Z,34.88
2019-05-14T07:44:53.133Z,35.58
2019-05-14T07:47:20.371Z,35.91
2019-05-14T07:49:48.983Z,35.39
2019-05-14T07:52:16.325Z,34.97
2019-05-14T07:54:43.566Z,35.99
2019-05-14T07:57:10.805Z,37.53
2019-05-14T07:59:38.328Z,35.86
2019-05-14T08:02:05.661Z,36.42
2019-05-14T08:04:32.827Z,39.05
2019-05-14T08:07:00.037Z,37.70
2019-05-14T08:09:28.235Z,35.76
2019-05-14T08:11:56.060Z,35.39
2019-05-14T08:14:24.825Z,35.75
2019-05-14T08:16:52.293Z,34.23
2019-05-14T08:19:26.239Z,33.13
2019-05-14T08:21:48.850Z,32.72
2019-05-14T08:24:21.763Z,33.23
2019-05-14T08:26:45.159Z,35.35
2019-05-14T08:29:12.327Z,36.74
2019-05-14T08:31:39.709Z,37.78
2019-05-14T08:34:09.221Z,36.43
2019-05-14T08:36:37.984Z,36.67
2019-05-14T08:39:06.150Z,39.47
2019-05-14T08:41:33.465Z,39.47
2019-05-14T08:44:00.653Z,40.60
2019-05-14T08:46:28.424Z,40.74
2019-05-14T08:48:58.379Z,41.08
2019-05-14T08:51:25.225Z,41.07
2019-05-14T08:57:50.243Z,42.67
2019-05-14T09:00:18.358Z,41.86
2019-05-14T09:02:45.650Z,39.27
2019-05-14T09:05:12.988Z,37.79
2019-05-14T09:07:40.223Z,38.22
2019-05-14T09:10:08.674Z,37.27
2019-05-14T09:12:38.609Z,37.89
2019-05-14T09:15:05.732Z,37.89
2019-05-14T09:17:33.212Z,39.35
2019-05-14T09:20:06.455Z,41.54
2019-05-14T09:22:29.471Z,41.68
2019-05-14T09:24:59.892Z,38.85
2019-05-14T09:27:25.628Z,37.70
2019-05-14T09:29:52.811Z,37.92
2019-05-14T09:32:20.018Z,33.73
2019-05-14T09:34:48.699Z,32.97
2019-05-14T09:37:19.041Z,33.70
2019-05-14T09:39:45.075Z,32.42
2019-05-14T09:42:12.771Z,31.74
2019-05-14T09:44:40.254Z,29.65
2019-05-14T09:47:08.569Z,27.71
2019-05-14T09:49:38.609Z,26.86
2019-05-14T09:52:05.430Z,25.42
2019-05-14T09:54:32.900Z,25.77
2019-05-14T09:57:00.172Z,25.15
2019-05-14T09:59:28.063Z,25.82
2019-05-14T10:01:55.357Z,25.44
2019-05-14T10:04:22.571Z,23.92
2019-05-14T10:06:49.742Z,21.79
2019-05-14T10:09:17.225Z,20.79
2019-05-14T10:11:44.592Z,20.34
2019-05-14T10:14:11.852Z,19.93
2019-05-14T10:16:39.306Z,20.01
2019-05-14T10:19:06.521Z,20.05
2019-05-14T10:21:33.805Z,20.13
2019-05-14T10:24:01.341Z,20.12
2019-05-14T10:26:29.070Z,18.96
2019-05-14T10:28:56.259Z,18.97
2019-05-14T10:31:23.453Z,18.62
2019-05-14T10:33:51.011Z,17.95
2019-05-14T10:36:19.065Z,17.33
2019-05-14T10:38:46.694Z,17.27
2019-05-14T10:41:13.905Z,17.00
2019-05-14T10:43:41.138Z,17.18
2019-05-14T10:46:09.223Z,16.72
2019-05-14T10:48:39.335Z,16.54
2019-05-14T10:51:05.473Z,16.55
2019-05-14T10:53:32.599Z,16.97
2019-05-14T10:56:00.074Z,17.24
2019-05-14T10:58:29.035Z,17.58
2019-05-14T11:00:58.658Z,17.07
2019-05-14T11:03:25.461Z,17.01
2019-05-14T11:05:52.764Z,17.35
2019-05-14T11:08:19.968Z,17.46
2019-05-14T11:10:49.828Z,17.60
2019-05-14T11:13:18.985Z,17.63
2019-05-14T11:15:48.435Z,17.20
2019-05-14T11:18:15.057Z,17.07
2019-05-14T11:20:42.531Z,16.69
2019-05-14T11:23:09.797Z,16.82
2019-05-14T11:25:38.344Z,17.05
2019-05-14T11:28:05.733Z,17.39
2019-05-14T11:30:32.920Z,17.49
2019-05-14T11:33:00.115Z,17.71
2019-05-14T11:35:28.797Z,17.87
2019-05-14T11:37:58.678Z,17.63
2019-05-14T11:40:25.410Z,16.91
2019-05-14T11:42:52.606Z,16.71
2019-05-14T11:45:19.888Z,17.00
2019-05-14T11:47:48.860Z,17.07
2019-05-14T11:50:19.271Z,17.37
2019-05-14T11:52:48.430Z,17.70
2019-05-14T11:55:18.486Z,17.41
2019-05-14T11:57:44.960Z,17.76
2019-05-14T12:00:12.717Z,18.01
2019-05-14T12:02:39.930Z,18.33
2019-05-14T12:05:08.805Z,18.05
2019-05-14T12:07:38.654Z,18.02
2019-05-14T12:10:08.838Z,17.52
2019-05-14T12:12:35.531Z,17.31
2019-05-14T12:15:03.482Z,17.23
2019-05-14T12:17:30.703Z,17.27
2019-05-14T12:19:59.423Z,17.17
2019-05-14T12:22:28.605Z,16.97
2019-05-14T12:24:55.871Z,17.09
2019-05-14T12:27:22.976Z,17.23
2019-05-14T12:29:50.287Z,17.72
2019-05-14T12:32:18.905Z,17.69
2019-05-14T12:34:48.789Z,17.17
2019-05-14T12:37:15.346Z,17.15
2019-05-14T12:39:42.598Z,17.18
2019-05-14T12:42:10.983Z,17.43
2019-05-14T12:44:40.905Z,17.38
2019-05-14T12:47:09.456Z,17.56
2019-05-14T12:49:38.688Z,18.18
2019-05-14T12:52:19.162Z,18.94
2019-05-14T12:54:35.187Z,18.75
2019-05-14T12:57:02.337Z,18.65
2019-05-14T12:59:29.780Z,18.29
2019-05-14T13:01:58.715Z,17.61
2019-05-14T13:04:28.478Z,17.55
2019-05-14T13:06:56.039Z,17.05
2019-05-14T13:09:23.254Z,16.80
2019-05-14T13:11:50.417Z,17.07
2019-05-14T13:14:17.579Z,17.36
2019-05-14T13:16:44.785Z,17.88
2019-05-14T13:19:12.137Z,17.88
2019-05-14T13:21:39.333Z,17.72
2019-05-14T13:24:08.775Z,17.63
2019-05-14T13:26:35.635Z,17.45
2019-05-14T13:29:07.307Z,17.55
2019-05-14T13:31:31.977Z,17.95
2019-05-14T13:33:59.692Z,18.59
2019-05-14T13:36:28.775Z,18.96
2019-05-14T13:38:55.972Z,18.71
2019-05-14T13:41:23.148Z,17.92
2019-05-14T13:43:50.861Z,17.44
2019-05-14T13:46:19.005Z,16.58
2019-05-14T13:48:49.576Z,16.35
2019-05-14T13:51:15.390Z,16.59
2019-05-14T13:53:42.626Z,16.82
2019-05-14T13:56:10.051Z,17.35
2019-05-14T13:58:37.427Z,17.50
2019-05-14T14:01:04.548Z,17.31
2019-05-14T14:03:31.704Z,17.33
2019-05-14T14:05:59.546Z,17.03
2019-05-14T14:08:29.204Z,17.29
2019-05-14T14:11:01.971Z,17.66
2019-05-14T14:13:25.237Z,18.13
2019-05-14T14:15:52.705Z,18.32
2019-05-14T14:18:21.040Z,18.24
2019-05-14T14:20:49.069Z,17.61
2019-05-14T14:23:23.144Z,17.45
2019-05-14T14:25:53.531Z,17.31
2019-05-14T14:28:14.873Z,17.23
2019-05-14T14:30:42.153Z,17.14
2019-05-14T14:33:09.332Z,17.35
2019-05-14T14:35:38.678Z,17.76
2019-05-14T14:38:08.500Z,18.05
2019-05-14T14:40:34.977Z,17.96
2019-05-14T14:43:02.062Z,17.88
2019-05-14T14:45:29.562Z,17.94
2019-05-14T14:47:56.994Z,17.98
2019-05-14T14:50:24.174Z,17.84
2019-05-14T14:52:51.881Z,17.86
2019-05-14T14:55:19.617Z,17.89
2019-05-14T14:57:53.680Z,18.06
2019-05-14T15:00:19.176Z,18.14
2019-05-14T15:02:45.274Z,18.07
2019-05-14T15:05:14.528Z,17.94
2019-05-14T15:07:42.007Z,18.00
2019-05-14T15:10:09.449Z,18.03
2019-05-14T15:12:40.087Z,18.02
2019-05-14T15:15:06.029Z,17.92
2019-05-14T15:17:33.495Z,17.47
2019-05-14T15:20:00.719Z,17.00
2019-05-14T15:22:30.854Z,16.65
2019-05-14T15:24:58.558Z,16.30
2019-05-14T15:27:28.137Z,16.21
2019-05-14T15:29:55.022Z,16.28
2019-05-14T15:32:22.197Z,16.48
2019-05-14T15:34:50.656Z,16.75
2019-05-14T15:37:19.083Z,16.91
2019-05-14T15:39:48.925Z,17.44
2019-05-14T15:42:15.851Z,17.67
2019-05-14T15:44:51.959Z,17.53
2019-05-14T15:47:12.234Z,17.21
2019-05-14T15:49:39.427Z,16.68
2019-05-14T15:52:08.410Z,16.20
2019-05-14T15:54:45.598Z,15.88
2019-05-14T15:57:04.850Z,15.67
2019-05-14T15:59:32.158Z,15.65
2019-05-14T16:01:59.729Z,15.94
2019-05-14T16:04:28.646Z,16.17
2019-05-14T16:06:58.438Z,16.29
2019-05-14T16:09:25.176Z,16.14
2019-05-14T16:11:52.392Z,15.99
2019-05-14T16:14:19.625Z,15.65
2019-05-14T16:16:48.723Z,15.49
2019-05-14T16:19:18.874Z,15.39
2019-05-14T16:21:45.264Z,15.30
2019-05-14T16:24:12.492Z,15.32
2019-05-14T16:26:39.731Z,15.35
2019-05-14T16:29:08.977Z,15.44
2019-05-14T16:31:41.999Z,15.57
2019-05-14T16:34:05.113Z,15.70
2019-05-14T16:36:32.358Z,15.83
2019-05-14T16:38:59.575Z,15.90
2019-05-14T16:41:29.095Z,16.02
2019-05-14T16:43:58.684Z,16.09
2019-05-14T16:46:25.550Z,15.99
2019-05-14T16:48:53.078Z,15.82
2019-05-14T16:51:20.362Z,15.66
2019-05-14T16:53:48.837Z,15.38
2019-05-14T16:56:18.451Z,15.43
2019-05-14T16:58:45.510Z,15.42
2019-05-14T17:01:12.817Z,15.27
2019-05-14T17:03:40.211Z,15.30
2019-05-14T17:06:07.473Z,15.19
2019-05-14T17:08:34.989Z,15.25
2019-05-14T17:11:02.196Z,15.17
2019-05-14T17:13:29.420Z,15.18
2019-05-14T17:15:58.750Z,15.32
2019-05-14T17:18:28.572Z,15.24
2019-05-14T17:20:55.137Z,15.16
2019-05-14T17:23:22.728Z,15.11
2019-05-14T17:25:49.957Z,15.14
2019-05-14T17:28:17.318Z,15.09
2019-05-14T17:30:44.495Z,15.09
2019-05-14T17:33:11.720Z,15.09
2019-05-14T17:35:39.101Z,15.16
2019-05-14T17:38:09.044Z,15.36
2019-05-14T17:40:35.353Z,15.27
2019-05-14T17:43:02.686Z,15.20
2019-05-14T17:45:29.787Z,15.28
2019-05-14T17:47:58.542Z,15.07
2019-05-14T17:50:25.813Z,14.88
2019-05-14T17:52:56.604Z,14.80
2019-05-14T17:55:22.132Z,14.68
2019-05-14T17:57:57.493Z,14.49
2019-05-14T18:00:18.741Z,14.32
2019-05-14T18:02:48.414Z,14.25
2019-05-14T18:05:15.413Z,14.21
2019-05-14T18:07:42.622Z,14.01
2019-05-14T18:10:10.139Z,14.02
2019-05-14T18:12:39.756Z,13.94
2019-05-14T18:15:08.588Z,13.90
2019-05-14T18:17:38.940Z,13.90
2019-05-14T18:20:08.157Z,13.78
2019-05-14T18:22:35.052Z,13.63
2019-05-14T18:25:02.350Z,13.50
2019-05-14T18:27:29.563Z,13.38
2019-05-14T18:29:59.121Z,13.39
2019-05-14T18:32:25.780Z,13.43
2019-05-14T18:34:53.121Z,13.50
2019-05-14T18:37:20.170Z,13.42
2019-05-14T18:39:48.319Z,13.45
2019-05-14T18:42:15.664Z,13.39
2019-05-14T18:44:42.878Z,13.27
2019-05-14T18:47:10.060Z,13.49
2019-05-14T18:49:37.282Z,13.57
2019-05-14T18:52:04.457Z,13.24
2019-05-14T18:54:31.624Z,12.96
2019-05-14T18:56:59.669Z,12.72
2019-05-14T18:59:30.557Z,12.85
2019-05-14T19:01:56.040Z,12.63
2019-05-14T19:04:23.260Z,12.42
2019-05-14T19:06:50.483Z,12.23
2019-05-14T19:09:18.605Z,12.52
2019-05-14T19:11:48.056Z,12.66
2019-05-14T19:14:15.321Z,12.29
2019-05-14T19:16:42.511Z,12.19
2019-05-14T19:19:09.636Z,12.18
2019-05-14T19:21:38.246Z,12.26
2019-05-14T19:24:06.223Z,12.15
2019-05-14T19:26:37.023Z,12.05
2019-05-14T19:29:02.697Z,11.93
2019-05-14T19:31:29.992Z,11.89
2019-05-14T19:33:57.244Z,11.70
2019-05-14T19:36:24.439Z,11.72
2019-05-14T19:38:51.709Z,11.75
2019-05-14T19:41:22.556Z,11.76
2019-05-14T19:43:48.259Z,11.74
2019-05-14T19:46:15.452Z,11.82
2019-05-14T19:48:42.970Z,11.71
2019-05-14T19:51:10.175Z,11.60
2019-05-14T19:53:39.190Z,11.61
2019-05-14T19:56:06.502Z,11.52
2019-05-14T19:58:33.687Z,11.57
2019-05-14T20:01:00.799Z,11.85
2019-05-14T20:03:29.145Z,11.89
2019-05-14T20:05:56.309Z,11.66
2019-05-14T20:08:23.536Z,11.70
2019-05-14T20:10:50.753Z,11.43
2019-05-14T20:13:19.384Z,11.42
2019-05-14T20:15:48.722Z,11.46
2019-05-14T20:18:15.979Z,11.24
2019-05-14T20:20:43.159Z,11.34
2019-05-14T20:23:10.892Z,11.24
2019-05-14T20:25:38.907Z,11.14
2019-05-14T20:28:08.165Z,11.00
2019-05-14T20:30:35.287Z,10.82
2019-05-14T20:33:02.792Z,10.85
2019-05-14T20:35:34.634Z,10.82
2019-05-14T20:37:58.917Z,10.71
2019-05-14T20:40:28.304Z,10.59
2019-05-14T20:42:55.087Z,10.52
2019-05-14T20:45:22.380Z,10.47
2019-05-14T20:47:49.493Z,10.37
2019-05-14T20:50:18.210Z,10.29
2019-05-14T20:52:45.771Z,10.49
2019-05-14T20:55:12.990Z,10.37
2019-05-14T20:57:40.200Z,10.25
2019-05-14T21:00:18.112Z,10.29
2019-05-14T21:02:45.125Z,10.24
2019-05-14T21:05:13.793Z,10.25
2019-05-14T21:07:41.380Z,10.19
2019-05-14T21:10:09.113Z,10.07
2019-05-14T21:12:39.106Z,9.94
2019-05-14T21:15:08.935Z,9.98
2019-05-14T21:17:36.170Z,9.87
2019-05-14T21:20:03.694Z,9.85
2019-05-14T21:22:31.185Z,9.85
2019-05-14T21:24:58.531Z,9.72
2019-05-14T21:27:40.278Z,9.67
2019-05-14T21:29:58.147Z,9.58
2019-05-14T21:32:25.058Z,9.63
2019-05-14T21:34:52.344Z,9.85
2019-05-14T21:37:19.756Z,10.08
2019-05-14T21:39:49.043Z,9.94
2019-05-14T21:42:19.278Z,9.68
2019-05-14T21:44:45.922Z,9.53
2019-05-14T21:47:13.257Z,9.49
2019-05-14T21:49:40.593Z,9.40
2019-05-14T21:52:09.036Z,9.40
2019-05-14T21:54:39.260Z,9.45
2019-05-14T21:57:08.463Z,9.28
2019-05-14T21:59:34.938Z,9.17
2019-05-14T22:02:03.289Z,9.07
2019-05-14T22:04:30.815Z,8.95
2019-05-14T22:06:58.424Z,8.89
2019-05-14T22:09:25.882Z,8.85
2019-05-14T22:11:55.307Z,8.83
2019-05-14T22:14:22.897Z,8.81
2019-05-14T22:16:50.453Z,8.77
2019-05-14T22:19:19.050Z,8.74
2019-05-14T22:21:48.642Z,8.64
2019-05-14T22:24:16.268Z,8.57
2019-05-14T22:26:43.853Z,8.55
2019-05-14T22:29:11.291Z,8.51
2019-05-14T22:31:38.955Z,8.50
2019-05-14T22:34:08.732Z,8.48
2019-05-14T22:36:38.180Z,8.48
2019-05-14T22:39:05.457Z,8.44
2019-05-14T22:41:32.774Z,8.40
2019-05-14T22:44:00.191Z,8.37
2019-05-14T22:46:27.516Z,8.33
2019-05-14T22:48:54.861Z,8.32
2019-05-14T22:51:22.068Z,8.27
2019-05-14T22:53:49.563Z,8.24
2019-05-14T22:56:16.762Z,8.20
2019-05-14T22:58:44.348Z,8.18
2019-05-14T23:01:14.908Z,8.17
2019-05-14T23:03:40.536Z,8.16
2019-05-14T23:06:09.001Z,8.08
2019-05-14T23:08:38.910Z,7.98
2019-05-14T23:11:05.400Z,7.94
2019-05-14T23:13:32.669Z,7.90
2019-05-14T23:15:59.822Z,7.90
2019-05-14T23:18:28.758Z,7.88
2019-05-14T23:20:58.696Z,7.86
2019-05-14T23:23:25.486Z,7.86
2019-05-14T23:25:52.959Z,7.82
2019-05-14T23:28:20.168Z,7.79
2019-05-14T23:30:48.150Z,7.78
2019-05-14T23:33:15.314Z,7.76
2019-05-14T23:35:42.485Z,7.72
2019-05-14T23:38:09.845Z,7.71
2019-05-14T23:40:38.772Z,7.70
2019-05-14T23:43:06.207Z,7.65
2019-05-14T23:45:33.267Z,7.58
2019-05-14T23:48:00.659Z,7.53
2019-05-14T23:50:28.341Z,7.44
2019-05-14T23:52:55.653Z,7.37
2019-05-14T23:55:22.817Z,7.28
2019-05-14T23:57:50.021Z,7.26
